北海道METAR電文


稚内(RJCW)
07/19 18:00
METAR RJCW 190900Z 31003KT 200V360 6000 FEW005 SCT015 BKN050 21/20
Q1003 RMK 1ST005 3ST015 5CU050 A2963=

利尻(RJER)
07/19 16:00
RJER 190700Z 31010G20KT 9999 RA FEW010 SCT040 BKNXXX 23/22 Q1003 RMK
A2962=

紋別(RJEB)
07/19 16:00
METAR RJEB 190700Z 33003KT 9999 -SHRA FEW030 SCT060 BKN100 25/20
Q1003 RMK 1CU030 3CU060 5AC100 A2964=

女満別(RJCM)
07/19 18:00
METAR RJCM 190900Z 18010KT 9999 -SHRA FEW015 SCT030 BKN100 24/21
Q1006 RMK 1ST015 3CU030 5AC100 A2972=

中標津(RJCN)
07/19 18:00
METAR RJCN 190900Z 20005KT 4000 -DZ BR FEW004 BKN008 21/20 Q1009 RMK
1ST004 7ST008 A2980=

釧路(RJCK)
07/19 18:22
RJCK 190922Z 16011KT 0200 R17/0600V1400D FG VV001 20/20 Q1009
RMK A2980=

十勝(RJCT)
07/19 18:00
METAR RJCT 190900Z NIL=

帯広(RJCB)
07/19 18:22
RJCB 190922Z 16009KT 0500 R35/0750V1200N FG -SHRA VV002 21/21
Q1007 RMK A2976=

旭川M(RJCA)
07/19 18:00
METAR RJCA 190900Z NIL=

旭川C(RJEC)
07/19 18:00
METAR RJEC 190900Z 18013KT 9999 FEW025 SCT040 BKN070 24/20 Q1005 RMK
1CU025 3CU040 5AC070 A2968=

丘珠(RJCO)
07/19 18:03
RJCO 190903Z 15018G28KT 9999 FEW008 BKN010 BKN045 24/23 Q1005
RMK 1ST008 5ST010 5CU045 A2970=

新千歳(RJCC)
07/19 18:00
METAR RJCC 190900Z 15022KT 9999 FEW004 BKN006 BKN008 23/22 Q1005 RMK
1ST004 5ST006 6ST008 A2970=

千歳(RJCJ)
07/19 18:00
METAR RJCJ 190900Z 16022KT 9999 FEW004 SCT005 BKN006 23/22 Q1005 RMK
1ST004 3ST005 6ST006 A2970 MAX WIND 30KT=

奥尻(RJEO)
07/19 14:00
RJEO 190500Z 21018KT 5000 BR SCT005 BKN008 23/23 Q1003 RMK A2964=

函館(RJCH)
07/19 18:16
RJCH 190916Z 22011KT 4900 -SHRA BR FEW003 BKN008 BKN012 23/23
Q1006 RMK 1ST003 5ST008 6ST012 A2972 2000W=
Copyright(c) 2014 International Meteorological & Oceanographic Consultants Co,.Ltd. All Rights Reserved. Design by http://f-tpl.com